sensor_id;sensor_type;location;lat;lon;timestamp;pressure;altitude;pressure_sealevel;temperature;humidity
65054;BME280;51639;47.828;35.038;2022-12-05T00:10:36;102387.03;;;-0.55;40.72
65054;BME280;51639;47.828;35.038;2022-12-05T00:25:38;102380.16;;;-0.61;41.41
65054;BME280;51639;47.828;35.038;2022-12-05T00:40:40;102368.53;;;-0.70;41.54
65054;BME280;51639;47.828;35.038;2022-12-05T00:55:42;102342.81;;;-0.80;41.16
65054;BME280;51639;47.828;35.038;2022-12-05T01:10:54;102344.47;;;-0.65;41.61
65054;BME280;51639;47.828;35.038;2022-12-05T01:25:57;102328.72;;;-1.04;41.63
65054;BME280;51639;47.828;35.038;2022-12-05T01:41:04;102317.06;;;-0.89;42.19
65054;BME280;51639;47.828;35.038;2022-12-05T01:56:07;102325.53;;;-1.06;42.46
65054;BME280;51639;47.828;35.038;2022-12-05T02:11:09;102332.41;;;-1.24;42.38
65054;BME280;51639;47.828;35.038;2022-12-05T02:26:34;102344.19;;;-1.06;42.76
65054;BME280;51639;47.828;35.038;2022-12-05T02:57:09;102305.63;;;-1.14;42.99
65054;BME280;51639;47.828;35.038;2022-12-05T03:12:23;102312.78;;;-0.90;43.33
65054;BME280;51639;47.828;35.038;2022-12-05T03:42:52;102296.28;;;-0.92;43.56
65054;BME280;51639;47.828;35.038;2022-12-05T03:58:01;102317.00;;;-0.84;43.54
65054;BME280;51639;47.828;35.038;2022-12-05T04:13:06;102325.75;;;-1.02;43.97
65054;BME280;51639;47.828;35.038;2022-12-05T04:28:31;102315.91;;;-0.83;43.76
65054;BME280;51639;47.828;35.038;2022-12-05T04:43:38;102308.56;;;-0.54;43.51
65054;BME280;51639;47.828;35.038;2022-12-05T04:58:42;102312.16;;;-0.82;44.04
65054;BME280;51639;47.828;35.038;2022-12-05T05:13:44;102302.22;;;-0.58;43.50
65054;BME280;51639;47.828;35.038;2022-12-05T05:28:47;102292.19;;;-0.66;43.70
65054;BME280;51639;47.828;35.038;2022-12-05T05:43:50;102300.50;;;-0.49;43.03
65054;BME280;51639;47.828;35.038;2022-12-05T05:59:00;102300.81;;;1.78;38.62
65054;BME280;51639;47.828;35.038;2022-12-05T06:14:03;102284.94;;;3.26;36.41
65054;BME280;51639;47.828;35.038;2022-12-05T06:29:05;102279.44;;;4.12;34.45
65054;BME280;51639;47.828;35.038;2022-12-05T06:44:08;102278.09;;;5.36;33.07
65054;BME280;51639;47.828;35.038;2022-12-05T06:59:10;102267.34;;;4.94;32.15
65054;BME280;51639;47.828;35.038;2022-12-05T07:14:12;102277.03;;;6.64;30.74
65054;BME280;51639;47.828;35.038;2022-12-05T07:29:34;102279.72;;;7.56;29.28
65054;BME280;51639;47.828;35.038;2022-12-05T07:44:36;102291.06;;;7.34;29.64
65054;BME280;51639;47.828;35.038;2022-12-05T07:59:38;102281.22;;;8.29;28.81
65054;BME280;51639;47.828;35.038;2022-12-05T08:14:40;102274.03;;;9.03;27.94
65054;BME280;51639;47.828;35.038;2022-12-05T08:29:42;102244.56;;;9.59;27.85
65054;BME280;51639;47.828;35.038;2022-12-05T08:44:44;102241.78;;;8.43;28.71
65054;BME280;51639;47.828;35.038;2022-12-05T08:59:46;102237.63;;;10.27;27.85
65054;BME280;51639;47.828;35.038;2022-12-05T09:14:48;102197.97;;;10.22;26.35
65054;BME280;51639;47.828;35.038;2022-12-05T09:29:50;102183.13;;;10.16;27.06
65054;BME280;51639;47.828;35.038;2022-12-05T10:00:13;102152.25;;;11.17;25.69
65054;BME280;51639;47.828;35.038;2022-12-05T10:30:25;102111.03;;;12.00;25.54
65054;BME280;51639;47.828;35.038;2022-12-05T10:45:50;102104.53;;;12.22;25.69
65054;BME280;51639;47.828;35.038;2022-12-05T11:01:09;102102.38;;;12.60;26.09
65054;BME280;51639;47.828;35.038;2022-12-05T11:16:23;102088.06;;;11.06;27.50
65054;BME280;51639;47.828;35.038;2022-12-05T11:31:28;102068.44;;;11.74;27.06
65054;BME280;51639;47.828;35.038;2022-12-05T12:02:07;102081.53;;;13.60;25.36
65054;BME280;51639;47.828;35.038;2022-12-05T13:18:27;102064.53;;;7.67;32.04
65054;BME280;51639;47.828;35.038;2022-12-05T13:33:33;102050.44;;;7.27;32.64
65054;BME280;51639;47.828;35.038;2022-12-05T13:48:37;102054.00;;;7.15;32.65
65054;BME280;51639;47.828;35.038;2022-12-05T14:34:32;102033.00;;;6.09;32.98
65054;BME280;51639;47.828;35.038;2022-12-05T14:49:52;102033.50;;;6.14;32.25
65054;BME280;51639;47.828;35.038;2022-12-05T15:04:59;102038.28;;;5.69;31.57
65054;BME280;51639;47.828;35.038;2022-12-05T15:20:10;102048.72;;;5.58;31.37
65054;BME280;51639;47.828;35.038;2022-12-05T15:35:16;102053.41;;;5.25;31.21
65054;BME280;51639;47.828;35.038;2022-12-05T16:06:13;102044.50;;;5.00;30.01
65054;BME280;51639;47.828;35.038;2022-12-05T16:21:35;102045.25;;;4.34;30.44
65054;BME280;51639;47.828;35.038;2022-12-05T16:36:45;102033.84;;;4.37;30.18
65054;BME280;51639;47.828;35.038;2022-12-05T17:07:09;102020.88;;;3.98;30.49
65054;BME280;51639;47.828;35.038;2022-12-05T17:22:12;102040.31;;;3.36;30.79
65054;BME280;51639;47.828;35.038;2022-12-05T17:37:21;102037.56;;;3.53;30.76
65054;BME280;51639;47.828;35.038;2022-12-05T17:52:27;102030.88;;;3.30;31.51
65054;BME280;51639;47.828;35.038;2022-12-05T18:07:29;102018.69;;;3.32;31.26
65054;BME280;51639;47.828;35.038;2022-12-05T18:22:31;102005.09;;;2.91;31.90
65054;BME280;51639;47.828;35.038;2022-12-05T18:37:37;101998.44;;;3.05;32.11
65054;BME280;51639;47.828;35.038;2022-12-05T18:52:39;102013.84;;;2.62;32.33
65054;BME280;51639;47.828;35.038;2022-12-05T19:07:41;101997.09;;;2.82;32.47
65054;BME280;51639;47.828;35.038;2022-12-05T19:22:43;102003.91;;;2.62;33.06
65054;BME280;51639;47.828;35.038;2022-12-05T19:37:45;102000.47;;;2.36;33.77
65054;BME280;51639;47.828;35.038;2022-12-05T19:52:47;101996.53;;;2.33;33.87
65054;BME280;51639;47.828;35.038;2022-12-05T20:07:51;101981.84;;;2.48;33.82
65054;BME280;51639;47.828;35.038;2022-12-05T20:22:53;101963.88;;;2.14;34.58
65054;BME280;51639;47.828;35.038;2022-12-05T20:37:55;101960.59;;;2.00;34.73
65054;BME280;51639;47.828;35.038;2022-12-05T20:52:57;101972.84;;;1.66;34.89
65054;BME280;51639;47.828;35.038;2022-12-05T21:08:00;101950.78;;;1.69;35.14
65054;BME280;51639;47.828;35.038;2022-12-05T21:23:02;101958.38;;;1.76;35.76
65054;BME280;51639;47.828;35.038;2022-12-05T21:38:04;101959.50;;;1.84;36.05
65054;BME280;51639;47.828;35.038;2022-12-05T21:53:06;101942.28;;;1.67;35.84
65054;BME280;51639;47.828;35.038;2022-12-05T22:08:09;101914.59;;;1.63;36.04
65054;BME280;51639;47.828;35.038;2022-12-05T22:23:11;101910.22;;;1.11;37.51
65054;BME280;51639;47.828;35.038;2022-12-05T22:38:17;101895.78;;;1.29;37.36
65054;BME280;51639;47.828;35.038;2022-12-05T22:53:21;101880.09;;;0.96;38.30
65054;BME280;51639;47.828;35.038;2022-12-05T23:08:23;101878.22;;;0.88;38.50
65054;BME280;51639;47.828;35.038;2022-12-05T23:23:25;101873.81;;;0.92;38.55
65054;BME280;51639;47.828;35.038;2022-12-05T23:38:27;101875.72;;;1.00;38.31
65054;BME280;51639;47.828;35.038;2022-12-05T23:53:32;101846.13;;;0.97;38.77
